createdAt,value
2023-01-15T00:00:54.243Z,91.4
2023-01-15T00:02:34.609Z,91.13
2023-01-15T00:04:14.830Z,91.24
2023-01-15T00:05:55.109Z,91.75
2023-01-15T00:07:35.435Z,92.13
2023-01-15T00:09:15.722Z,92.21
2023-01-15T00:10:56.004Z,92.22
2023-01-15T00:12:36.311Z,92.79
2023-01-15T00:14:16.609Z,93.08
2023-01-15T00:15:56.940Z,92.31
2023-01-15T00:17:37.180Z,92.15
2023-01-15T00:19:17.516Z,91.5
2023-01-15T00:20:57.823Z,91.75
2023-01-15T00:22:38.101Z,92.01
2023-01-15T00:24:18.372Z,92.48
2023-01-15T00:25:58.679Z,90.08
2023-01-15T00:27:39.108Z,90.42
2023-01-15T00:29:19.285Z,89.47
2023-01-15T00:30:59.626Z,89.83
2023-01-15T00:32:39.895Z,89.52
2023-01-15T00:34:20.197Z,89.52
2023-01-15T00:36:00.504Z,89.84
2023-01-15T00:37:40.783Z,90.09
2023-01-15T00:39:21.054Z,89.46
2023-01-15T00:41:01.363Z,89.92
2023-01-15T00:42:41.648Z,90.3
2023-01-15T00:44:21.935Z,90.79
2023-01-15T00:46:02.266Z,90.78
2023-01-15T00:47:42.536Z,91.24
2023-01-15T00:49:22.813Z,91.53
2023-01-15T00:51:03.163Z,91.77
2023-01-15T00:52:43.411Z,91.67
2023-01-15T00:54:23.700Z,92.14
2023-01-15T00:56:04.051Z,92.4
2023-01-15T00:57:45.877Z,92.01
2023-01-15T00:59:24.599Z,91.42
2023-01-15T01:01:05.053Z,91.53
2023-01-15T01:02:45.186Z,91.53
2023-01-15T01:04:25.531Z,90.9
2023-01-15T01:06:05.722Z,90.77
2023-01-15T01:07:46.028Z,90.2
2023-01-15T01:09:26.375Z,89.42
2023-01-15T01:11:06.609Z,90.12
2023-01-15T01:12:46.906Z,90.06
2023-01-15T01:14:27.235Z,88.75
2023-01-15T01:16:07.577Z,88.52
2023-01-15T01:17:47.782Z,87.89
2023-01-15T01:19:28.088Z,87.61
2023-01-15T01:21:08.431Z,88.01
2023-01-15T01:22:48.666Z,88.82
2023-01-15T01:24:28.979Z,89.41
2023-01-15T01:26:09.287Z,90.26
2023-01-15T01:27:49.565Z,89.35
2023-01-15T01:29:29.837Z,89.38
2023-01-15T01:31:10.244Z,89.9
2023-01-15T01:32:50.467Z,89.58
2023-01-15T01:34:30.736Z,89.98
2023-01-15T01:36:11.030Z,89.9
2023-01-15T01:37:51.333Z,90.28
2023-01-15T01:39:31.614Z,90.61
2023-01-15T01:41:11.901Z,90.59
2023-01-15T01:42:52.219Z,91.16
2023-01-15T01:44:32.505Z,91
2023-01-15T01:46:12.800Z,91.55
2023-01-15T01:47:53.076Z,92.01
2023-01-15T01:49:33.411Z,92.21
2023-01-15T01:51:13.665Z,92.39
2023-01-15T01:52:53.967Z,92.56
2023-01-15T01:54:34.286Z,93.03
2023-01-15T01:56:14.609Z,93.05
2023-01-15T01:57:54.856Z,92.6
2023-01-15T01:59:35.151Z,92.12
2023-01-15T02:01:15.544Z,92.17
2023-01-15T02:02:55.749Z,92.41
2023-01-15T02:04:36.032Z,92.95
2023-01-15T02:06:16.400Z,92.68
2023-01-15T02:07:56.726Z,92.63
2023-01-15T02:09:36.900Z,92.39
2023-01-15T02:11:17.243Z,92.55
2023-01-15T02:12:57.529Z,92.03
2023-01-15T02:14:37.810Z,92.8
2023-01-15T02:16:18.124Z,92.53
2023-01-15T02:17:58.419Z,92.73
2023-01-15T02:19:38.695Z,91.98
2023-01-15T02:21:18.979Z,91.28
2023-01-15T02:22:59.284Z,91.27
2023-01-15T02:26:19.885Z,90.81
2023-01-15T02:28:00.170Z,90.45
2023-01-15T02:29:40.507Z,90.44
2023-01-15T02:31:20.932Z,90.49
2023-01-15T02:33:01.267Z,91.11
2023-01-15T02:34:41.764Z,91.26
2023-01-15T02:36:22.054Z,91.47
2023-01-15T02:38:02.416Z,92.02
2023-01-15T02:39:42.670Z,91.88
2023-01-15T02:41:22.941Z,92.48
2023-01-15T02:43:03.263Z,91.11
2023-01-15T02:44:43.533Z,91.48
2023-01-15T02:46:23.872Z,91.41
2023-01-15T02:48:04.173Z,90.85
2023-01-15T02:49:44.447Z,91.25
2023-01-15T02:51:24.743Z,91.23
2023-01-15T02:53:05.109Z,90.42
2023-01-15T02:54:45.409Z,90.16
2023-01-15T02:56:25.649Z,90.57
2023-01-15T02:58:05.992Z,90.32
2023-01-15T02:59:46.246Z,90.11
2023-01-15T03:01:26.811Z,89.46
2023-01-15T03:03:06.880Z,89.85
2023-01-15T03:04:47.274Z,90.27
2023-01-15T03:06:27.633Z,90.25
2023-01-15T03:08:08.049Z,89.69
2023-01-15T03:09:48.369Z,89.79
2023-01-15T03:11:28.713Z,89.61
2023-01-15T03:13:09.089Z,87.95
2023-01-15T03:18:10.281Z,86.39
2023-01-15T03:19:50.649Z,86.13
2023-01-15T03:21:30.965Z,86.02
2023-01-15T03:23:11.364Z,87.6
2023-01-15T03:24:51.681Z,88.49
2023-01-15T03:26:32.101Z,87.13
2023-01-15T03:28:12.537Z,88.05
2023-01-15T03:29:52.971Z,86.96
2023-01-15T03:31:33.351Z,85.25
2023-01-15T03:33:13.719Z,84.83
2023-01-15T03:34:54.142Z,84.32
2023-01-15T03:36:34.436Z,84.84
2023-01-15T03:38:14.722Z,85.9
2023-01-15T03:39:54.985Z,85.43
2023-01-15T03:41:35.279Z,85.35
2023-01-15T03:43:15.592Z,86.22
2023-01-15T03:44:55.858Z,85.52
2023-01-15T03:46:36.211Z,84.74
2023-01-15T03:48:16.470Z,84.24
2023-01-15T03:49:56.741Z,84.52
2023-01-15T03:51:37.074Z,84.87
2023-01-15T03:53:17.320Z,84
2023-01-15T03:54:57.620Z,84.15
2023-01-15T03:56:37.912Z,84.35
2023-01-15T03:58:18.188Z,85.52
2023-01-15T03:59:58.513Z,83.93
2023-01-15T04:01:38.889Z,82.66
2023-01-15T04:03:19.075Z,83.02
2023-01-15T04:04:59.449Z,83.39
2023-01-15T04:06:39.747Z,82.34
2023-01-15T04:08:19.976Z,84.07
2023-01-15T04:10:00.281Z,84.5
2023-01-15T04:11:40.561Z,84.4
2023-01-15T04:13:20.868Z,84.29
2023-01-15T04:15:01.145Z,85.72
2023-01-15T04:16:41.409Z,85.53
2023-01-15T04:18:21.706Z,84.42
2023-01-15T04:20:02.048Z,84.94
2023-01-15T04:21:42.342Z,86.94
2023-01-15T04:23:22.599Z,84.96
2023-01-15T04:25:02.890Z,82.71
2023-01-15T04:26:43.212Z,84.43
2023-01-15T04:28:23.482Z,83.73
2023-01-15T04:30:03.785Z,82.48
2023-01-15T04:31:44.073Z,81.92
2023-01-15T04:33:24.378Z,81.77
2023-01-15T04:35:04.681Z,82.51
2023-01-15T04:36:44.943Z,82.12
2023-01-15T04:38:25.258Z,81.03
2023-01-15T04:40:05.550Z,80.54
2023-01-15T04:41:45.816Z,81.17
2023-01-15T04:43:26.118Z,81.6
2023-01-15T04:45:06.392Z,81.11
2023-01-15T04:46:46.704Z,82.09
2023-01-15T04:48:27.011Z,80.96
2023-01-15T04:50:07.271Z,80.81
2023-01-15T04:51:47.570Z,79.64
2023-01-15T04:53:27.897Z,80.48
2023-01-15T04:55:08.158Z,81.89
2023-01-15T04:58:28.982Z,81.4
2023-01-15T05:00:09.442Z,80.35
2023-01-15T05:02:02.584Z,80.28
2023-01-15T05:03:30.165Z,80.69
2023-01-15T05:05:10.536Z,80.05
2023-01-15T05:06:50.945Z,80.33
2023-01-15T05:08:31.250Z,78.66
2023-01-15T05:10:11.552Z,80.25
2023-01-15T05:11:51.863Z,81.44
2023-01-15T05:13:32.160Z,81.12
2023-01-15T05:15:12.480Z,80.62
2023-01-15T05:16:52.732Z,80.6
2023-01-15T05:18:33.022Z,80.15
2023-01-15T05:20:13.382Z,81.1
2023-01-15T05:21:53.658Z,80.51
2023-01-15T05:23:33.949Z,80.52
2023-01-15T05:25:14.298Z,81.4
2023-01-15T05:26:54.554Z,81.01
2023-01-15T05:28:34.861Z,80.9
2023-01-15T05:30:15.149Z,80.84
2023-01-15T05:31:55.462Z,80.02
2023-01-15T05:33:35.766Z,80.41
2023-01-15T05:35:16.065Z,80.66
2023-01-15T05:36:56.366Z,80.48
2023-01-15T05:38:36.642Z,80.1
2023-01-15T05:40:16.934Z,80.14
2023-01-15T05:41:57.245Z,81
2023-01-15T05:43:37.515Z,80.24
2023-01-15T05:45:17.800Z,80.34
2023-01-15T05:46:58.149Z,78.72
2023-01-15T05:48:38.383Z,78.37
2023-01-15T05:50:18.719Z,78.71
2023-01-15T05:51:58.989Z,77.62
2023-01-15T05:53:39.285Z,77.4
2023-01-15T05:55:19.601Z,77.15
2023-01-15T05:56:59.871Z,79.01
2023-01-15T05:58:40.185Z,77.97
2023-01-15T06:00:20.485Z,78.46
2023-01-15T06:02:00.756Z,79.56
2023-01-15T06:03:41.090Z,79.25
2023-01-15T06:05:21.456Z,79.36
2023-01-15T06:07:01.776Z,79.66
2023-01-15T06:08:41.976Z,80.99
2023-01-15T06:10:22.257Z,79.21
2023-01-15T06:12:02.562Z,78.36
2023-01-15T06:13:42.836Z,77.44
2023-01-15T06:15:23.111Z,78.25
2023-01-15T06:17:03.409Z,77.38
2023-01-15T06:18:43.739Z,77.4
2023-01-15T06:20:24.025Z,77.16
2023-01-15T06:22:04.335Z,77.13
2023-01-15T06:23:44.662Z,77.92
2023-01-15T06:25:24.968Z,77.22
2023-01-15T06:27:05.257Z,76.6
2023-01-15T06:28:45.599Z,77.43
2023-01-15T06:30:25.860Z,76.59
2023-01-15T06:32:06.161Z,77.86
2023-01-15T06:33:46.451Z,77.07
2023-01-15T06:35:26.721Z,76.72
2023-01-15T06:37:07.055Z,76.9
2023-01-15T06:38:47.363Z,77.31
2023-01-15T06:40:27.696Z,77.82
2023-01-15T06:42:08.101Z,77.93
2023-01-15T06:43:48.440Z,77.78
2023-01-15T06:45:28.743Z,78.01
2023-01-15T06:47:09.256Z,77.71
2023-01-15T06:48:49.620Z,77.59
2023-01-15T06:50:29.946Z,77.98
2023-01-15T06:52:10.297Z,78.28
2023-01-15T06:53:50.614Z,78.89
2023-01-15T06:55:30.899Z,79.44
2023-01-15T06:57:11.209Z,80.21
2023-01-15T06:58:51.569Z,80.18
2023-01-15T07:00:31.945Z,80.37
2023-01-15T07:02:12.213Z,80.28
2023-01-15T07:03:52.604Z,80.66
2023-01-15T07:05:32.862Z,81.14
2023-01-15T07:07:13.170Z,81.57
2023-01-15T07:08:53.524Z,80.98
2023-01-15T07:10:33.945Z,81.34
2023-01-15T07:12:14.341Z,81.46
2023-01-15T07:13:54.774Z,81.86
2023-01-15T07:15:35.086Z,82.38
2023-01-15T07:17:15.483Z,82.15
2023-01-15T07:19:08.331Z,82.38
2023-01-15T07:20:48.693Z,82.04
2023-01-15T07:22:29.100Z,82.47
2023-01-15T07:24:09.446Z,82.33
2023-01-15T07:25:49.723Z,82.6
2023-01-15T07:27:29.991Z,82.51
2023-01-15T07:29:10.284Z,82.66
2023-01-15T07:30:50.589Z,82.54
2023-01-15T07:32:30.962Z,82.64
2023-01-15T07:34:11.222Z,82.79
2023-01-15T07:35:51.618Z,82.94
2023-01-15T07:37:32.021Z,82.92
2023-01-15T07:39:12.437Z,83.25
2023-01-15T07:40:52.789Z,83.19
2023-01-15T07:42:33.183Z,83.26
2023-01-15T07:44:13.597Z,83.35
2023-01-15T07:45:53.999Z,83.23
2023-01-15T07:47:34.338Z,83.61
2023-01-15T07:49:14.675Z,83.77
2023-01-15T07:50:55.073Z,83.62
2023-01-15T07:52:35.404Z,83.44
2023-01-15T07:54:15.690Z,83.72
2023-01-15T07:55:55.958Z,83.75
2023-01-15T07:57:36.237Z,83.89
2023-01-15T07:59:16.556Z,83.76
2023-01-15T08:00:56.943Z,83.33
2023-01-15T08:02:37.100Z,83.77
2023-01-15T08:04:17.481Z,84.12
2023-01-15T08:05:57.677Z,84.16
2023-01-15T08:07:37.951Z,84.11
2023-01-15T08:09:18.233Z,84.03
2023-01-15T08:10:58.552Z,84.22
2023-01-15T08:12:38.826Z,84.07
2023-01-15T08:14:19.091Z,84.1
2023-01-15T08:15:59.424Z,83.87
2023-01-15T08:17:39.700Z,84.09
2023-01-15T08:19:20.035Z,83.91
2023-01-15T08:21:00.328Z,84.39
2023-01-15T08:22:40.570Z,84.63
2023-01-15T08:24:20.883Z,84.29
2023-01-15T08:26:01.305Z,84.03
2023-01-15T08:27:41.648Z,84.14
2023-01-15T08:29:22.085Z,83.79
2023-01-15T08:31:02.466Z,83.86
2023-01-15T08:32:42.866Z,84.06
2023-01-15T08:34:23.359Z,83.65
2023-01-15T08:36:03.734Z,83.47
2023-01-15T08:37:44.079Z,83.41
2023-01-15T08:39:24.493Z,83.29
2023-01-15T08:41:04.872Z,83.37
2023-01-15T08:42:45.155Z,83.4
2023-01-15T08:44:25.492Z,83.51
2023-01-15T08:46:05.921Z,83.55
2023-01-15T08:47:46.135Z,83.56
2023-01-15T08:49:26.516Z,83.55
2023-01-15T08:51:06.817Z,83.72
2023-01-15T08:52:47.224Z,83.64
2023-01-15T08:54:27.609Z,83.45
2023-01-15T08:56:08.003Z,83.57
2023-01-15T08:57:48.407Z,83.52
2023-01-15T08:59:28.779Z,83.83
2023-01-15T09:01:09.284Z,83.44
2023-01-15T09:02:50.365Z,83.59
2023-01-15T09:04:29.841Z,83.03
2023-01-15T09:06:10.099Z,83.16
2023-01-15T09:07:50.389Z,83.27
2023-01-15T09:09:30.704Z,83.32
2023-01-15T09:11:11.056Z,82.99
2023-01-15T09:12:51.355Z,82.91
2023-01-15T09:14:56.540Z,82.33
2023-01-15T09:16:12.045Z,82.52
2023-01-15T09:17:52.340Z,82.76
2023-01-15T09:19:32.688Z,82.37
2023-01-15T09:21:13.012Z,82.49
2023-01-15T09:22:53.340Z,81.67
2023-01-15T09:24:33.626Z,81.58
2023-01-15T09:26:13.987Z,81.37
2023-01-15T09:27:54.325Z,81.71
2023-01-15T09:29:34.618Z,81.92
2023-01-15T09:31:15.044Z,81.7
2023-01-15T09:32:55.311Z,81.66
2023-01-15T09:34:35.562Z,81.14
2023-01-15T09:36:15.928Z,80.8
2023-01-15T09:37:56.204Z,80.94
2023-01-15T09:39:36.545Z,80.25
2023-01-15T09:41:16.862Z,80.52
2023-01-15T09:42:57.134Z,80.14
2023-01-15T09:44:37.477Z,79.74
2023-01-15T09:46:17.833Z,79.43
2023-01-15T09:47:58.148Z,79.67
2023-01-15T09:49:38.459Z,78.76
2023-01-15T09:51:18.787Z,78.69
2023-01-15T09:52:59.119Z,77.65
2023-01-15T09:54:39.379Z,77.43
2023-01-15T09:56:19.759Z,77.4
2023-01-15T09:58:00.051Z,77.28
2023-01-15T09:59:40.364Z,77.25
2023-01-15T10:01:20.753Z,77.09
2023-01-15T10:03:01.047Z,77.28
2023-01-15T10:04:41.314Z,76.72
2023-01-15T10:06:21.597Z,76.88
2023-01-15T10:08:02.026Z,77.45
2023-01-15T10:09:42.382Z,77.24
2023-01-15T10:11:22.701Z,77.16
2023-01-15T10:13:03.022Z,77.16
2023-01-15T10:14:43.353Z,77.92
2023-01-15T10:16:23.719Z,77.38
2023-01-15T10:18:04.079Z,77.37
2023-01-15T10:19:45.128Z,77.54
2023-01-15T10:21:24.939Z,77.29
2023-01-15T10:23:05.274Z,77.37
2023-01-15T10:24:45.677Z,77.89
2023-01-15T10:26:26.109Z,77.05
2023-01-15T10:28:06.452Z,77.86
2023-01-15T10:29:46.903Z,77.47
2023-01-15T10:31:27.330Z,77.59
2023-01-15T10:33:07.712Z,77.69
2023-01-15T10:34:48.137Z,77.72
2023-01-15T10:36:28.485Z,77.05
2023-01-15T10:38:08.862Z,76.28
2023-01-15T10:39:49.171Z,77.21
2023-01-15T10:41:29.508Z,77.67
2023-01-15T10:43:09.920Z,76.7
2023-01-15T10:44:50.299Z,76.3
2023-01-15T10:46:30.737Z,76.96
2023-01-15T10:48:11.068Z,76.79
2023-01-15T10:49:51.503Z,76.19
2023-01-15T10:51:31.866Z,76.38
2023-01-15T10:53:12.234Z,76.73
2023-01-15T10:54:52.553Z,76.52
2023-01-15T10:56:32.820Z,77.34
2023-01-15T10:58:13.091Z,77.06
2023-01-15T10:59:53.428Z,76.92
2023-01-15T11:01:33.792Z,75.4
2023-01-15T11:03:14.049Z,74.04
2023-01-15T11:04:54.461Z,75.55
2023-01-15T11:06:34.639Z,75.99
2023-01-15T11:08:58.215Z,75.98
2023-01-15T11:09:55.297Z,76.11
2023-01-15T11:11:35.567Z,76.13
2023-01-15T11:13:15.918Z,74.77
2023-01-15T11:14:56.179Z,74.32
2023-01-15T11:16:36.457Z,73.96
2023-01-15T11:18:16.768Z,72.14
2023-01-15T11:19:57.041Z,73.78
2023-01-15T11:21:37.376Z,72.13
2023-01-15T11:23:17.635Z,71.8
2023-01-15T11:24:57.966Z,71.53
2023-01-15T11:26:38.288Z,70.34
2023-01-15T11:28:21.238Z,68.78
2023-01-15T11:29:59.119Z,68.18
2023-01-15T11:31:39.527Z,66.6
2023-01-15T11:33:19.820Z,65.1
2023-01-15T11:35:00.119Z,66.84
2023-01-15T11:36:40.419Z,65.76
2023-01-15T11:38:20.703Z,66.88
2023-01-15T11:40:00.996Z,64.82
2023-01-15T11:41:41.294Z,65.9
2023-01-15T11:43:21.615Z,65.79
2023-01-15T11:45:01.910Z,64.58
2023-01-15T11:46:42.266Z,64.6
2023-01-15T11:48:22.478Z,64.24
2023-01-15T11:50:02.789Z,63.94
2023-01-15T11:51:43.116Z,63.54
2023-01-15T11:53:23.369Z,64.52
2023-01-15T11:55:03.680Z,63.42
2023-01-15T11:56:43.960Z,63.96
2023-01-15T11:58:24.271Z,62.26
2023-01-15T12:00:04.567Z,62.79
2023-01-15T12:01:44.883Z,63.57
2023-01-15T12:03:25.144Z,64.07
2023-01-15T12:05:05.459Z,62.38
2023-01-15T12:06:45.745Z,62.99
2023-01-15T12:08:26.023Z,63.51
2023-01-15T12:10:06.379Z,62.7
2023-01-15T12:11:46.667Z,62.93
2023-01-15T12:13:26.899Z,62.19
2023-01-15T12:15:07.201Z,62.19
2023-01-15T12:16:47.501Z,61.7
2023-01-15T12:20:08.072Z,61.48
2023-01-15T12:21:48.388Z,61.1
2023-01-15T12:23:28.677Z,62.68
2023-01-15T12:25:08.957Z,62.01
2023-01-15T12:26:49.254Z,63.24
2023-01-15T12:28:29.540Z,62.64
2023-01-15T12:30:09.832Z,62.68
2023-01-15T12:31:50.126Z,61.93
2023-01-15T12:33:30.461Z,61.16
2023-01-15T12:35:10.735Z,61.28
2023-01-15T12:36:51.063Z,61.88
2023-01-15T12:38:31.380Z,61.03
2023-01-15T12:40:11.663Z,60.46
2023-01-15T12:41:51.938Z,60.86
2023-01-15T12:43:32.246Z,61.91
2023-01-15T12:45:12.533Z,60.45
2023-01-15T12:46:52.850Z,60.13
2023-01-15T12:48:33.147Z,59.72
2023-01-15T12:50:13.462Z,59.96
2023-01-15T12:51:53.712Z,60.95
2023-01-15T12:53:34.065Z,60.18
2023-01-15T12:55:14.323Z,61.42
2023-01-15T12:56:54.640Z,61.46
2023-01-15T12:58:34.903Z,62.13
2023-01-15T13:00:15.259Z,61.39
2023-01-15T13:01:55.660Z,61.79
2023-01-15T13:03:35.764Z,61.7
2023-01-15T13:05:16.075Z,62.3
2023-01-15T13:06:56.477Z,61.36
2023-01-15T13:08:36.686Z,62.48
2023-01-15T13:10:17.026Z,61.57
2023-01-15T13:11:57.266Z,62.15
2023-01-15T13:13:37.552Z,62.14
2023-01-15T13:15:17.852Z,62.29
2023-01-15T13:16:58.161Z,62.69
2023-01-15T13:18:38.448Z,62.62
2023-01-15T13:20:18.756Z,62.95
2023-01-15T13:21:59.014Z,63.77
2023-01-15T13:23:39.326Z,62.56
2023-01-15T13:25:19.631Z,63.01
2023-01-15T13:26:59.916Z,63.07
2023-01-15T13:28:40.221Z,63.64
2023-01-15T13:30:20.480Z,63.21
2023-01-15T13:32:00.804Z,63.84
2023-01-15T13:33:41.114Z,63.85
2023-01-15T13:35:21.430Z,63.61
2023-01-15T13:37:01.674Z,63.84
2023-01-15T13:38:41.983Z,63.29
2023-01-15T13:40:22.352Z,64.2
2023-01-15T13:42:02.555Z,63.49
2023-01-15T13:43:42.906Z,63.88
2023-01-15T13:45:23.181Z,64.02
2023-01-15T13:47:03.462Z,62.8
2023-01-15T13:48:45.433Z,63.95
2023-01-15T13:50:24.079Z,64.05
2023-01-15T13:52:04.355Z,63.16
2023-01-15T13:53:44.627Z,63.58
2023-01-15T13:55:24.951Z,63.49
2023-01-15T13:57:05.232Z,63.43
2023-01-15T13:58:45.510Z,63.69
2023-01-15T14:00:25.829Z,64.43
2023-01-15T14:02:06.142Z,63.9
2023-01-15T14:03:46.417Z,64.04
2023-01-15T14:05:26.725Z,64.48
2023-01-15T14:07:07.890Z,64.27
2023-01-15T14:08:47.299Z,65.18
2023-01-15T14:10:27.603Z,64.01
2023-01-15T14:12:07.867Z,64.73
2023-01-15T14:13:51.949Z,64.61
2023-01-15T14:15:28.466Z,64.35
2023-01-15T14:17:08.756Z,64.17
2023-01-15T14:18:49.068Z,64.42
2023-01-15T14:20:29.353Z,64.94
2023-01-15T14:22:09.643Z,64.36
2023-01-15T14:23:49.925Z,64.55
2023-01-15T14:25:30.243Z,64.76
2023-01-15T14:27:10.555Z,64.75
2023-01-15T14:28:50.811Z,64.41
2023-01-15T14:30:31.128Z,64.83
2023-01-15T14:32:11.420Z,65.11
2023-01-15T14:33:51.704Z,64.99
2023-01-15T14:35:32.001Z,65.3
2023-01-15T14:37:12.363Z,64.96
2023-01-15T14:38:52.643Z,65.43
2023-01-15T14:40:32.921Z,65.04
2023-01-15T14:42:13.239Z,64.55
2023-01-15T14:43:53.509Z,64.89
2023-01-15T14:45:33.893Z,63.92
2023-01-15T14:47:14.091Z,64.6
2023-01-15T14:48:54.414Z,64.87
2023-01-15T14:50:34.799Z,64.79
2023-01-15T14:52:15.004Z,65.03
2023-01-15T14:53:55.308Z,64.82
2023-01-15T14:55:35.572Z,64.29
2023-01-15T14:57:15.873Z,64.61
2023-01-15T14:58:56.184Z,65.17
2023-01-15T15:00:36.475Z,65.42
2023-01-15T15:02:16.983Z,65.02
2023-01-15T15:03:57.075Z,64.83
2023-01-15T15:05:37.405Z,64.22
2023-01-15T15:07:17.688Z,64.68
2023-01-15T15:08:58.007Z,64.3
2023-01-15T15:10:38.422Z,64.95
2023-01-15T15:12:18.679Z,65.19
2023-01-15T15:13:58.959Z,65.35
2023-01-15T15:15:39.246Z,65.11
2023-01-15T15:17:19.538Z,64.89
2023-01-15T15:18:59.920Z,64.64
2023-01-15T15:20:40.179Z,64.76
2023-01-15T15:22:20.453Z,65.16
2023-01-15T15:24:00.765Z,65.03
2023-01-15T15:25:41.036Z,65.55
2023-01-15T15:27:21.315Z,65.32
2023-01-15T15:29:01.636Z,65.73
2023-01-15T15:30:41.916Z,65.51
2023-01-15T15:32:22.233Z,65.16
2023-01-15T15:34:02.521Z,66
2023-01-15T15:35:42.842Z,66.04
2023-01-15T15:37:23.191Z,65.98
2023-01-15T15:39:03.570Z,66.04
2023-01-15T15:40:43.935Z,66.2
2023-01-15T15:42:24.209Z,65.72
2023-01-15T15:44:04.501Z,65.87
2023-01-15T15:45:44.889Z,66.33
2023-01-15T15:47:25.071Z,66.47
2023-01-15T15:49:05.381Z,66.21
2023-01-15T15:50:45.774Z,66.2
2023-01-15T15:52:26.206Z,65.68
2023-01-15T15:54:06.700Z,66.84
2023-01-15T15:55:46.883Z,68.12
2023-01-15T15:57:27.300Z,68.4
2023-01-15T15:59:07.558Z,68.89
2023-01-15T16:00:47.875Z,67.93
2023-01-15T16:02:28.283Z,68.93
2023-01-15T16:04:08.437Z,69.98
2023-01-15T16:05:48.754Z,69.03
2023-01-15T16:07:29.058Z,70.38
2023-01-15T16:09:09.413Z,70.44
2023-01-15T16:10:49.704Z,70.64
2023-01-15T16:12:30.057Z,70.76
2023-01-15T16:14:10.342Z,70.69
2023-01-15T16:15:50.852Z,70.45
2023-01-15T16:17:31.110Z,70.94
2023-01-15T16:19:11.547Z,71.29
2023-01-15T16:20:53.209Z,71.78
2023-01-15T16:22:32.274Z,71.36
2023-01-15T16:24:12.669Z,71.21
2023-01-15T16:25:53.037Z,71.66
2023-01-15T16:27:33.384Z,71.34
2023-01-15T16:29:13.681Z,71.59
2023-01-15T16:30:54.082Z,71.97
2023-01-15T16:32:34.503Z,72.19
2023-01-15T16:34:14.905Z,73.08
2023-01-15T16:35:55.316Z,73.04
2023-01-15T16:37:35.662Z,73.5
2023-01-15T16:39:16.018Z,73.88
2023-01-15T16:40:56.466Z,72.83
2023-01-15T16:42:36.727Z,72.85
2023-01-15T16:44:17.099Z,72.78
2023-01-15T16:45:57.511Z,72.91
2023-01-15T16:47:37.882Z,72.95
2023-01-15T16:49:18.190Z,72.77
2023-01-15T16:50:58.608Z,73.1
2023-01-15T16:52:38.989Z,72.94
2023-01-15T16:54:19.427Z,72.97
2023-01-15T16:55:59.852Z,72.75
2023-01-15T16:57:40.209Z,73.09
2023-01-15T16:59:20.558Z,73.33
2023-01-15T17:01:01.004Z,73.36
2023-01-15T17:02:41.333Z,73.02
2023-01-15T17:04:21.719Z,72.9
2023-01-15T17:06:02.084Z,73.32
2023-01-15T17:07:42.486Z,73.3
2023-01-15T17:09:22.868Z,73.03
2023-01-15T17:11:03.185Z,73.28
2023-01-15T17:12:43.540Z,73.17
2023-01-15T17:14:23.982Z,72.99
2023-01-15T17:16:04.390Z,73.26
2023-01-15T17:17:44.628Z,73.03
2023-01-15T17:19:24.947Z,73.11
2023-01-15T17:21:05.272Z,73.42
2023-01-15T17:22:45.539Z,73.07
2023-01-15T17:24:25.853Z,73.44
2023-01-15T17:26:06.216Z,73.43
2023-01-15T17:27:46.510Z,73.58
2023-01-15T17:29:26.813Z,73.68
2023-01-15T17:31:07.196Z,72.78
2023-01-15T17:32:47.553Z,72.66
2023-01-15T17:34:27.811Z,72.65
2023-01-15T17:36:08.124Z,72.41
2023-01-15T17:37:48.490Z,72.44
2023-01-15T17:39:28.777Z,72.08
2023-01-15T17:41:09.097Z,72.1
2023-01-15T17:42:49.434Z,72.23
2023-01-15T17:44:29.747Z,71.82
2023-01-15T17:46:10.212Z,71.83
2023-01-15T17:47:50.388Z,71.8
2023-01-15T17:49:30.943Z,71.42
2023-01-15T17:51:10.991Z,71.15
2023-01-15T17:52:51.407Z,70.61
2023-01-15T17:54:31.649Z,71.42
2023-01-15T17:56:12.013Z,71.32
2023-01-15T17:57:52.312Z,70.96
2023-01-15T17:59:32.623Z,70.51
2023-01-15T18:01:13.024Z,70.01
2023-01-15T18:02:53.367Z,69.85
2023-01-15T18:04:33.611Z,70.48
2023-01-15T18:06:13.922Z,70.36
2023-01-15T18:07:54.230Z,70.18
2023-01-15T18:09:34.813Z,70.66
2023-01-15T18:11:14.842Z,70.51
2023-01-15T18:12:55.177Z,70.7
2023-01-15T18:14:35.528Z,70.71
2023-01-15T18:16:15.878Z,70.53
2023-01-15T18:17:56.216Z,71.18
2023-01-15T18:19:36.627Z,70.6
2023-01-15T18:21:16.946Z,70.46
2023-01-15T18:22:57.410Z,70.6
2023-01-15T18:24:37.849Z,70.61
2023-01-15T18:26:18.217Z,70.23
2023-01-15T18:27:58.552Z,70.8
2023-01-15T18:29:38.848Z,71.2
2023-01-15T18:31:19.236Z,70.44
2023-01-15T18:33:01.936Z,70.49
2023-01-15T18:34:39.757Z,70.1
2023-01-15T18:36:20.061Z,70.46
2023-01-15T18:38:00.324Z,70.67
2023-01-15T18:39:40.617Z,71.08
2023-01-15T18:41:20.919Z,70.8
2023-01-15T18:43:01.205Z,70.53
2023-01-15T18:44:41.526Z,70.69
2023-01-15T18:46:21.837Z,71.09
2023-01-15T18:48:02.126Z,70.87
2023-01-15T18:49:42.403Z,70.73
2023-01-15T18:51:22.783Z,70.52
2023-01-15T18:53:03.051Z,70.4
2023-01-15T18:54:43.277Z,70.67
2023-01-15T18:56:23.592Z,71.01
2023-01-15T18:58:03.878Z,70.94
2023-01-15T18:59:44.196Z,71.27
2023-01-15T19:01:24.585Z,71.34
2023-01-15T19:03:04.811Z,71.48
2023-01-15T19:04:45.116Z,71.67
2023-01-15T19:06:25.451Z,71.99
2023-01-15T19:08:05.762Z,72.17
2023-01-15T19:09:46.015Z,72.32
2023-01-15T19:11:26.284Z,72.89
2023-01-15T19:13:06.600Z,73.05
2023-01-15T19:14:46.882Z,72.58
2023-01-15T19:16:27.232Z,72.6
2023-01-15T19:18:07.528Z,72.68
2023-01-15T19:19:47.792Z,72.63
2023-01-15T19:21:28.069Z,73.26
2023-01-15T19:23:08.413Z,72.83
2023-01-15T19:24:48.661Z,73.13
2023-01-15T19:26:28.972Z,73.19
2023-01-15T19:28:09.271Z,73.37
2023-01-15T19:29:49.577Z,73.39
2023-01-15T19:31:29.904Z,73.49
2023-01-15T19:33:10.180Z,73.29
2023-01-15T19:34:50.485Z,73.38
2023-01-15T19:36:30.789Z,73.81
2023-01-15T19:38:11.039Z,73.89
2023-01-15T19:39:51.370Z,74.16
2023-01-15T19:41:31.653Z,73.99
2023-01-15T19:43:11.921Z,74.3
2023-01-15T19:44:52.252Z,74.15
2023-01-15T19:46:32.567Z,74.25
2023-01-15T19:48:12.821Z,74.27
2023-01-15T19:49:53.137Z,74.54
2023-01-15T19:51:33.421Z,74.39
2023-01-15T19:53:13.749Z,74.24
2023-01-15T19:54:54.049Z,74.49
2023-01-15T19:56:34.348Z,74.32
2023-01-15T19:58:14.690Z,74.37
2023-01-15T19:59:55.268Z,74.56
2023-01-15T20:01:35.722Z,74.6
2023-01-15T20:03:20.882Z,74.65
2023-01-15T20:05:01.213Z,74.87
2023-01-15T20:06:41.579Z,74.8
2023-01-15T20:08:21.933Z,74.75
2023-01-15T20:10:02.273Z,74.88
2023-01-15T20:13:23.490Z,75.55
2023-01-15T20:15:03.837Z,76.02
2023-01-15T20:16:44.301Z,76.85
2023-01-15T20:18:24.532Z,77.06
2023-01-15T20:20:04.839Z,77.58
2023-01-15T20:21:45.163Z,78.67
2023-01-15T20:23:25.427Z,78.78
2023-01-15T20:25:05.732Z,81.12
2023-01-15T20:26:46.071Z,81.11
2023-01-15T20:28:26.381Z,81.54
2023-01-15T20:30:06.652Z,80.86
2023-01-15T20:31:46.976Z,81.23
2023-01-15T20:33:27.231Z,82.24
2023-01-15T20:35:07.549Z,82.21
2023-01-15T20:36:47.854Z,82.56
2023-01-15T20:38:28.119Z,83.19
2023-01-15T20:40:08.417Z,82.46
2023-01-15T20:41:48.740Z,82.52
2023-01-15T20:43:29.014Z,82.46
2023-01-15T20:45:09.314Z,81.95
2023-01-15T20:46:49.626Z,82.76
2023-01-15T20:48:29.891Z,81.74
2023-01-15T20:50:16.272Z,81.7
2023-01-15T20:51:56.605Z,81.12
2023-01-15T20:53:36.791Z,80.85
2023-01-15T20:55:17.120Z,81.39
2023-01-15T20:56:57.397Z,80.75
2023-01-15T20:58:37.777Z,81.36
2023-01-15T21:00:18.029Z,80.99
2023-01-15T21:01:58.472Z,80.98
2023-01-15T21:03:38.623Z,81.14
2023-01-15T21:05:18.916Z,81.03
2023-01-15T21:06:59.282Z,81.52
2023-01-15T21:08:39.542Z,80.61
2023-01-15T21:10:19.829Z,81.01
2023-01-15T21:12:00.143Z,80.52
2023-01-15T21:13:40.421Z,80.45
2023-01-15T21:15:20.731Z,80.99
2023-01-15T21:17:01.043Z,80.63
2023-01-15T21:20:21.881Z,80.76
2023-01-15T21:22:02.281Z,80.85
2023-01-15T21:23:42.636Z,80.66
2023-01-15T21:25:23.040Z,80.97
2023-01-15T21:27:03.408Z,80.73
2023-01-15T21:28:43.778Z,80.3
2023-01-15T21:30:24.167Z,80.47
2023-01-15T21:32:04.578Z,79.76
2023-01-15T21:33:44.993Z,80.13
2023-01-15T21:35:25.414Z,80.17
2023-01-15T21:37:05.783Z,79.97
2023-01-15T21:38:46.205Z,80.33
2023-01-15T21:40:26.624Z,80.43
2023-01-15T21:42:08.911Z,79.92
2023-01-15T21:43:47.406Z,80.06
2023-01-15T21:45:27.703Z,79.9
2023-01-15T21:47:08.023Z,79.8
2023-01-15T21:48:48.289Z,79.87